createdAt,value
2022-12-20T00:00:20.253Z,1.54
2022-12-20T00:02:51.078Z,1.52
2022-12-20T00:05:21.297Z,1.32
2022-12-20T00:07:51.417Z,1.44
2022-12-20T00:10:21.417Z,1.49
2022-12-20T00:12:54.056Z,1.46
2022-12-20T00:15:24.316Z,1.47
2022-12-20T00:17:54.387Z,1.42
2022-12-20T00:20:24.501Z,1.42
2022-12-20T00:22:54.739Z,1.41
2022-12-20T00:25:25.722Z,1.34
2022-12-20T00:27:58.346Z,1.29
2022-12-20T00:30:29.015Z,1.25
2022-12-20T00:32:59.052Z,1.20
2022-12-20T00:35:29.186Z,1.06
2022-12-20T00:37:59.171Z,0.99
2022-12-20T00:40:29.288Z,0.94
2022-12-20T00:43:01.885Z,0.96
2022-12-20T00:45:31.897Z,0.92
2022-12-20T00:48:01.948Z,0.89
2022-12-20T00:50:32.122Z,0.86
2022-12-20T00:53:02.203Z,0.96
2022-12-20T00:55:32.603Z,0.99
2022-12-20T00:58:05.198Z,1.04
2022-12-20T01:00:35.348Z,1.07
2022-12-20T01:03:05.533Z,1.16
2022-12-20T01:05:35.920Z,1.23
2022-12-20T01:08:07.905Z,1.39
2022-12-20T01:10:38.138Z,1.39
2022-12-20T01:13:10.799Z,1.28
2022-12-20T01:15:41.025Z,1.11
2022-12-20T01:18:11.406Z,1.07
2022-12-20T01:20:41.537Z,0.89
2022-12-20T01:23:11.548Z,1.07
2022-12-20T01:25:41.571Z,1.04
2022-12-20T01:28:14.195Z,1.06
2022-12-20T01:30:44.713Z,1.15
2022-12-20T01:33:15.487Z,1.03
2022-12-20T01:35:45.509Z,0.97
2022-12-20T01:38:15.909Z,1.14
2022-12-20T01:40:45.918Z,1.22
2022-12-20T01:43:21.435Z,1.31
2022-12-20T01:45:52.836Z,1.34
2022-12-20T01:48:29.072Z,1.30
2022-12-20T01:50:59.187Z,1.46
2022-12-20T01:53:29.408Z,1.46
2022-12-20T01:56:02.452Z,1.57
2022-12-20T01:58:38.207Z,1.58
2022-12-20T02:01:09.092Z,1.32
2022-12-20T02:03:40.065Z,1.36
2022-12-20T02:06:23.142Z,1.63
2022-12-20T02:08:57.620Z,1.72
2022-12-20T02:12:11.428Z,1.73
2022-12-20T02:15:08.244Z,1.59
2022-12-20T02:17:52.231Z,1.65
2022-12-20T02:21:01.158Z,1.78
2022-12-20T02:24:01.830Z,1.84
2022-12-20T02:27:20.522Z,1.98
2022-12-20T02:30:12.247Z,2.05
2022-12-20T02:32:51.488Z,2.08
2022-12-20T02:35:26.899Z,2.04
2022-12-20T02:38:00.928Z,2.07
2022-12-20T02:40:38.327Z,2.01
2022-12-20T02:43:34.394Z,1.79
2022-12-20T02:46:05.436Z,1.77
2022-12-20T02:48:40.057Z,1.87
2022-12-20T02:51:14.304Z,1.91
2022-12-20T02:53:45.734Z,1.88
2022-12-20T02:56:25.589Z,2.00
2022-12-20T02:59:05.057Z,2.05
2022-12-20T03:01:44.357Z,2.00
2022-12-20T03:04:15.932Z,1.94
2022-12-20T03:07:02.221Z,2.00
2022-12-20T03:09:36.235Z,2.06
2022-12-20T03:12:07.269Z,2.14
2022-12-20T03:14:40.060Z,2.02
2022-12-20T03:17:14.827Z,2.03
2022-12-20T03:19:45.486Z,2.10
2022-12-20T03:22:15.730Z,2.11
2022-12-20T03:24:45.796Z,1.87
2022-12-20T03:27:16.673Z,1.84
2022-12-20T03:29:47.368Z,1.82
2022-12-20T03:32:20.142Z,2.01
2022-12-20T03:34:50.502Z,1.91
2022-12-20T03:37:26.546Z,1.93
2022-12-20T03:39:56.658Z,1.85
2022-12-20T03:42:26.777Z,1.74
2022-12-20T03:44:56.921Z,1.65
2022-12-20T03:47:32.778Z,1.50
2022-12-20T03:50:03.137Z,1.36
2022-12-20T03:52:37.042Z,1.37
2022-12-20T03:55:10.074Z,1.33
2022-12-20T03:57:46.082Z,1.53
2022-12-20T04:00:42.233Z,1.56
2022-12-20T04:03:36.619Z,1.66
2022-12-20T04:06:07.863Z,1.66
2022-12-20T04:08:37.896Z,1.71
2022-12-20T04:11:20.341Z,1.76
2022-12-20T04:13:57.351Z,1.81
2022-12-20T04:16:30.568Z,1.83
2022-12-20T04:19:03.497Z,1.89
2022-12-20T04:21:39.556Z,1.90
2022-12-20T04:24:11.186Z,1.92
2022-12-20T04:27:05.588Z,2.16
2022-12-20T04:29:35.901Z,2.12
2022-12-20T04:32:08.243Z,2.14
2022-12-20T04:34:40.922Z,2.03
2022-12-20T04:37:11.012Z,2.00
2022-12-20T04:39:48.845Z,2.13
2022-12-20T04:42:23.328Z,2.20
2022-12-20T04:44:54.967Z,2.20
2022-12-20T04:47:28.880Z,2.19
2022-12-20T04:50:01.639Z,2.18
2022-12-20T04:52:47.936Z,2.11
2022-12-20T04:55:19.129Z,2.25
2022-12-20T04:57:49.336Z,2.23
2022-12-20T05:00:21.070Z,2.13
2022-12-20T05:02:57.509Z,2.14
2022-12-20T05:05:31.472Z,2.15
2022-12-20T05:08:01.899Z,2.22
2022-12-20T05:10:33.361Z,2.17
2022-12-20T05:13:09.194Z,2.15
2022-12-20T05:15:45.010Z,2.16
2022-12-20T05:18:16.157Z,2.26
2022-12-20T05:21:17.523Z,2.30
2022-12-20T05:24:03.454Z,2.30
2022-12-20T05:26:40.476Z,2.28
2022-12-20T05:29:11.046Z,2.32
2022-12-20T05:31:41.307Z,2.28
2022-12-20T05:34:11.700Z,2.32
2022-12-20T05:36:46.532Z,2.37
2022-12-20T05:39:16.841Z,2.42
2022-12-20T05:41:50.351Z,2.35
2022-12-20T05:44:22.349Z,2.28
2022-12-20T05:46:55.605Z,2.32
2022-12-20T05:49:30.656Z,2.40
2022-12-20T05:52:06.578Z,2.34
2022-12-20T05:54:38.317Z,2.22
2022-12-20T05:57:16.219Z,2.28
2022-12-20T05:59:46.559Z,2.11
2022-12-20T06:02:22.383Z,2.13
2022-12-20T06:04:59.221Z,2.04
2022-12-20T06:07:32.239Z,1.91
2022-12-20T06:10:03.431Z,1.84
2022-12-20T06:12:47.288Z,1.81
2022-12-20T06:15:17.523Z,1.83
2022-12-20T06:17:48.097Z,1.74
2022-12-20T06:20:19.119Z,1.79
2022-12-20T06:22:54.760Z,1.98
2022-12-20T06:25:25.054Z,2.05
2022-12-20T06:27:56.252Z,1.97
2022-12-20T06:30:33.570Z,2.23
2022-12-20T06:33:21.366Z,2.37
2022-12-20T06:35:53.704Z,2.32
2022-12-20T06:38:29.349Z,2.42
2022-12-20T06:40:59.494Z,2.44
2022-12-20T06:43:29.628Z,2.43
2022-12-20T06:45:59.984Z,2.31
2022-12-20T06:48:30.113Z,2.35
2022-12-20T06:51:00.207Z,2.31
2022-12-20T06:53:34.023Z,2.33
2022-12-20T06:56:04.213Z,2.39
2022-12-20T06:58:35.541Z,2.43
2022-12-20T07:01:06.203Z,2.49
2022-12-20T07:03:36.815Z,2.56
2022-12-20T07:06:07.468Z,2.53
2022-12-20T07:08:40.225Z,2.56
2022-12-20T07:11:12.011Z,2.52
2022-12-20T07:13:42.384Z,2.57
2022-12-20T07:16:12.510Z,2.45
2022-12-20T07:18:42.610Z,2.44
2022-12-20T07:21:16.810Z,2.32
2022-12-20T07:23:50.230Z,2.27
2022-12-20T07:26:20.348Z,2.36
2022-12-20T07:28:50.538Z,2.47
2022-12-20T07:31:20.663Z,2.56
2022-12-20T07:33:50.826Z,2.38
2022-12-20T07:36:21.088Z,2.34
2022-12-20T07:38:53.814Z,2.39
2022-12-20T07:41:25.218Z,2.44
2022-12-20T07:43:55.323Z,2.44
2022-12-20T07:46:25.581Z,2.43
2022-12-20T07:48:56.358Z,2.31
2022-12-20T07:51:32.623Z,2.50
2022-12-20T07:54:09.418Z,2.77
2022-12-20T07:56:46.008Z,2.92
2022-12-20T07:59:21.631Z,3.11
2022-12-20T08:01:52.671Z,3.34
2022-12-20T08:04:29.188Z,3.51
2022-12-20T08:07:03.961Z,3.47
2022-12-20T08:09:44.385Z,3.62
2022-12-20T08:12:18.775Z,3.83
2022-12-20T08:14:52.508Z,3.95
2022-12-20T08:17:22.637Z,4.02
2022-12-20T08:19:53.389Z,4.13
2022-12-20T08:22:23.903Z,4.15
2022-12-20T08:24:56.620Z,3.96
2022-12-20T08:27:26.879Z,3.64
2022-12-20T08:29:57.134Z,3.62
2022-12-20T08:32:27.257Z,3.69
2022-12-20T08:34:57.534Z,3.88
2022-12-20T08:37:27.617Z,4.09
2022-12-20T08:40:00.901Z,4.25
2022-12-20T08:42:31.551Z,4.38
2022-12-20T08:45:01.624Z,4.39
2022-12-20T08:47:32.991Z,4.36
2022-12-20T08:50:03.408Z,4.49
2022-12-20T08:52:33.764Z,4.67
2022-12-20T08:55:06.732Z,4.86
2022-12-20T08:57:36.898Z,5.00
2022-12-20T09:00:09.121Z,5.07
2022-12-20T09:02:41.474Z,5.35
2022-12-20T09:05:12.848Z,5.50
2022-12-20T09:07:42.889Z,5.45
2022-12-20T09:10:16.338Z,5.62
2022-12-20T09:12:46.476Z,5.76
2022-12-20T09:15:16.942Z,5.75
2022-12-20T09:17:47.269Z,5.89
2022-12-20T09:20:17.980Z,5.92
2022-12-20T09:22:47.973Z,5.95
2022-12-20T09:25:20.595Z,5.96
2022-12-20T09:27:50.911Z,5.97
2022-12-20T09:30:21.439Z,6.16
2022-12-20T09:32:51.519Z,6.22
2022-12-20T09:35:23.507Z,6.24
2022-12-20T09:37:53.695Z,6.30
2022-12-20T09:40:33.279Z,6.29
2022-12-20T09:43:04.225Z,6.35
2022-12-20T09:45:39.472Z,6.22
2022-12-20T09:48:16.403Z,6.35
2022-12-20T09:51:01.379Z,6.46
2022-12-20T09:53:42.289Z,6.70
2022-12-20T09:56:20.417Z,6.77
2022-12-20T09:59:04.790Z,6.70
2022-12-20T10:01:39.919Z,7.03
2022-12-20T10:04:22.398Z,7.00
2022-12-20T10:07:13.261Z,7.42
2022-12-20T10:10:20.884Z,7.66
2022-12-20T10:13:09.383Z,7.82
2022-12-20T10:15:47.686Z,8.00
2022-12-20T10:18:38.416Z,8.04
2022-12-20T10:21:23.729Z,7.90
2022-12-20T10:24:04.253Z,8.00
2022-12-20T10:26:36.972Z,7.88
2022-12-20T10:29:09.795Z,7.67
2022-12-20T10:31:41.118Z,7.58
2022-12-20T10:34:11.264Z,7.31
2022-12-20T10:36:42.069Z,7.01
2022-12-20T10:39:13.145Z,6.90
2022-12-20T10:41:53.300Z,6.54
2022-12-20T10:44:29.894Z,6.42
2022-12-20T10:47:02.441Z,6.33
2022-12-20T10:49:36.307Z,6.16
2022-12-20T10:52:17.632Z,6.17
2022-12-20T10:54:49.314Z,6.16
2022-12-20T10:57:25.814Z,6.17
2022-12-20T11:00:02.061Z,6.15
2022-12-20T11:02:40.825Z,6.20
2022-12-20T11:05:27.849Z,6.24
2022-12-20T11:10:54.039Z,6.34
2022-12-20T11:13:29.451Z,6.30
2022-12-20T11:16:02.307Z,6.25
2022-12-20T11:18:47.824Z,5.96
2022-12-20T11:21:34.223Z,6.25
2022-12-20T11:24:17.141Z,6.35
2022-12-20T11:27:19.249Z,6.65
2022-12-20T11:30:11.338Z,6.71
2022-12-20T11:33:34.462Z,6.59
2022-12-20T11:36:13.980Z,6.71
2022-12-20T11:38:49.624Z,6.96
2022-12-20T11:41:33.549Z,7.18
2022-12-20T11:44:25.940Z,7.33
2022-12-20T11:47:25.069Z,7.39
2022-12-20T11:50:28.793Z,7.59
2022-12-20T11:53:05.128Z,7.71
2022-12-20T11:55:41.838Z,7.91
2022-12-20T11:58:22.052Z,8.13
2022-12-20T12:01:01.589Z,8.13
2022-12-20T12:03:37.463Z,8.28
2022-12-20T12:06:19.659Z,8.54
2022-12-20T12:08:57.404Z,8.66
2022-12-20T12:14:39.248Z,8.29
2022-12-20T12:17:20.469Z,8.33
2022-12-20T12:19:57.196Z,8.22
2022-12-20T12:22:37.581Z,8.01
2022-12-20T12:25:17.100Z,7.68
2022-12-20T12:27:47.618Z,7.50
2022-12-20T12:30:20.167Z,7.48
2022-12-20T12:32:58.364Z,7.51
2022-12-20T12:36:18.029Z,7.39
2022-12-20T12:39:34.601Z,7.43
2022-12-20T12:42:50.741Z,7.58
2022-12-20T12:45:29.171Z,7.76
2022-12-20T12:48:08.047Z,7.80
2022-12-20T12:50:45.619Z,7.76
2022-12-20T12:53:22.194Z,8.15
2022-12-20T12:56:12.674Z,8.40
2022-12-20T12:58:49.222Z,8.51
2022-12-20T13:01:54.030Z,8.61
2022-12-20T13:04:31.665Z,8.71
2022-12-20T13:07:27.575Z,8.73
2022-12-20T13:09:57.942Z,8.64
2022-12-20T13:12:59.996Z,8.52
2022-12-20T13:16:27.410Z,8.61
2022-12-20T13:19:17.806Z,8.58
2022-12-20T13:21:49.334Z,8.61
2022-12-20T13:24:57.810Z,8.63
2022-12-20T13:27:40.868Z,8.64
2022-12-20T13:30:33.533Z,8.63
2022-12-20T13:33:41.922Z,8.57
2022-12-20T13:36:37.364Z,8.41
2022-12-20T13:39:42.948Z,8.32
2022-12-20T13:42:40.257Z,8.17
2022-12-20T13:45:17.252Z,8.03
2022-12-20T13:47:58.692Z,7.85
2022-12-20T13:50:38.760Z,7.73
2022-12-20T13:53:18.777Z,7.55
2022-12-20T13:55:50.259Z,7.59
2022-12-20T13:58:23.876Z,7.56
2022-12-20T14:00:56.175Z,7.55
2022-12-20T14:03:32.023Z,7.51
2022-12-20T14:06:05.696Z,7.35
2022-12-20T14:08:40.314Z,7.19
2022-12-20T14:11:15.473Z,7.06
2022-12-20T14:13:45.888Z,7.07
2022-12-20T14:16:20.320Z,7.13
2022-12-20T14:19:04.700Z,7.23
2022-12-20T14:21:41.307Z,7.29
2022-12-20T14:24:20.085Z,7.33
2022-12-20T14:26:54.225Z,7.32
2022-12-20T14:29:33.924Z,7.22
2022-12-20T14:32:03.961Z,7.02
2022-12-20T14:34:41.973Z,7.01
2022-12-20T14:37:32.493Z,6.99
2022-12-20T14:40:07.613Z,6.95
2022-12-20T14:42:40.584Z,6.84
2022-12-20T14:45:28.402Z,6.70
2022-12-20T14:48:05.806Z,6.60
2022-12-20T14:50:41.247Z,6.61
2022-12-20T14:53:22.708Z,6.33
2022-12-20T14:55:52.999Z,6.38
2022-12-20T14:58:30.151Z,6.26
2022-12-20T15:01:03.961Z,6.25
2022-12-20T15:03:34.188Z,6.22
2022-12-20T15:06:07.616Z,6.30
2022-12-20T15:08:40.845Z,6.14
2022-12-20T15:11:24.261Z,6.11
2022-12-20T15:13:59.151Z,5.97
2022-12-20T15:16:31.896Z,5.96
2022-12-20T15:19:04.884Z,5.97
2022-12-20T15:21:43.077Z,5.85
2022-12-20T15:24:18.742Z,5.86
2022-12-20T15:26:49.239Z,5.59
2022-12-20T15:29:20.931Z,5.50
2022-12-20T15:31:52.495Z,5.56
2022-12-20T15:34:31.653Z,5.37
2022-12-20T15:37:06.489Z,5.44
2022-12-20T15:39:37.773Z,5.46
2022-12-20T15:42:10.340Z,5.43
2022-12-20T15:44:41.012Z,5.38
2022-12-20T15:47:15.360Z,5.41
2022-12-20T15:49:50.092Z,5.41
2022-12-20T15:52:26.493Z,5.39
2022-12-20T15:54:56.557Z,5.38
2022-12-20T15:57:28.807Z,5.37
2022-12-20T16:00:01.734Z,5.37
2022-12-20T16:02:41.906Z,5.34
2022-12-20T16:05:15.253Z,5.41
2022-12-20T16:07:47.913Z,5.43
2022-12-20T16:10:18.627Z,5.27
2022-12-20T16:12:49.144Z,5.21
2022-12-20T16:15:25.878Z,5.25
2022-12-20T16:17:56.102Z,5.27
2022-12-20T16:20:27.728Z,5.26
2022-12-20T16:23:00.400Z,5.24
2022-12-20T16:25:35.163Z,5.19
2022-12-20T16:28:06.083Z,5.24
2022-12-20T16:30:36.109Z,5.26
2022-12-20T16:33:08.594Z,5.09
2022-12-20T16:35:40.125Z,4.93
2022-12-20T16:38:12.766Z,5.02
2022-12-20T16:40:43.367Z,5.10
2022-12-20T16:43:18.637Z,5.11
2022-12-20T16:45:48.705Z,5.13
2022-12-20T16:48:18.891Z,5.21
2022-12-20T16:50:48.972Z,5.25
2022-12-20T16:53:21.637Z,5.27
2022-12-20T16:55:51.787Z,5.28
2022-12-20T16:58:23.722Z,5.32
2022-12-20T17:00:59.948Z,5.37
2022-12-20T17:03:30.103Z,5.39
2022-12-20T17:06:00.180Z,5.38
2022-12-20T17:11:23.551Z,5.36
2022-12-20T17:13:56.628Z,5.06
2022-12-20T17:16:28.091Z,4.63
2022-12-20T17:19:00.320Z,4.92
2022-12-20T17:24:26.196Z,4.93
2022-12-20T17:26:56.352Z,4.94
2022-12-20T17:29:26.430Z,4.95
2022-12-20T17:31:56.572Z,4.91
2022-12-20T17:34:29.301Z,4.82
2022-12-20T17:37:01.354Z,4.51
2022-12-20T17:39:33.937Z,4.65
2022-12-20T17:42:03.920Z,4.64
2022-12-20T17:44:34.144Z,4.71
2022-12-20T17:47:04.191Z,4.62
2022-12-20T17:49:34.253Z,4.68
2022-12-20T17:52:04.332Z,4.72
2022-12-20T17:54:40.282Z,4.66
2022-12-20T17:57:17.076Z,4.72
2022-12-20T17:59:47.518Z,4.77
2022-12-20T18:02:27.463Z,4.81
2022-12-20T18:04:57.798Z,4.75
2022-12-20T18:07:28.429Z,4.73
2022-12-20T18:10:01.004Z,4.72
2022-12-20T18:12:37.058Z,4.54
2022-12-20T18:15:10.279Z,4.38
2022-12-20T18:17:40.632Z,4.29
2022-12-20T18:20:13.191Z,4.13
2022-12-20T18:22:43.676Z,4.08
2022-12-20T18:25:18.327Z,4.21
2022-12-20T18:27:48.484Z,4.25
2022-12-20T18:30:18.710Z,4.21
2022-12-20T18:32:48.734Z,4.22
2022-12-20T18:35:19.077Z,4.15
2022-12-20T18:37:49.123Z,4.04
2022-12-20T18:40:22.125Z,4.13
2022-12-20T18:42:59.740Z,4.22
2022-12-20T18:45:37.033Z,4.16
2022-12-20T18:48:07.369Z,4.14
2022-12-20T18:50:39.077Z,4.09
2022-12-20T18:53:09.211Z,4.13
2022-12-20T18:55:42.776Z,4.02
2022-12-20T18:58:14.370Z,4.19
2022-12-20T19:00:44.628Z,4.32
2022-12-20T19:03:14.814Z,4.39
2022-12-20T19:05:45.010Z,4.48
2022-12-20T19:08:14.997Z,4.39
2022-12-20T19:10:47.652Z,4.31
2022-12-20T19:13:18.642Z,4.17
2022-12-20T19:15:49.950Z,4.14
2022-12-20T19:18:19.953Z,4.10
2022-12-20T19:20:49.944Z,4.04
2022-12-20T19:23:20.781Z,4.07
2022-12-20T19:25:53.507Z,4.09
2022-12-20T19:28:24.045Z,4.11
2022-12-20T19:30:54.132Z,4.19
2022-12-20T19:33:24.265Z,4.32
2022-12-20T19:35:56.098Z,4.46
2022-12-20T19:38:26.514Z,4.57
2022-12-20T19:40:59.112Z,4.65
2022-12-20T19:43:29.120Z,4.71
2022-12-20T19:46:00.189Z,4.74
2022-12-20T19:48:30.413Z,4.62
2022-12-20T19:51:05.073Z,4.54
2022-12-20T19:53:35.793Z,4.41
2022-12-20T19:56:10.473Z,4.47
2022-12-20T19:58:41.522Z,4.45
2022-12-20T20:01:12.887Z,4.56
2022-12-20T20:03:43.020Z,4.65
2022-12-20T20:06:13.423Z,4.70
2022-12-20T20:08:44.831Z,4.75
2022-12-20T20:11:18.986Z,4.76
2022-12-20T20:13:49.961Z,4.68
2022-12-20T20:16:22.884Z,4.74
2022-12-20T20:18:53.881Z,4.81
2022-12-20T20:21:26.207Z,4.85
2022-12-20T20:23:58.153Z,4.75
2022-12-20T20:26:31.839Z,4.75
2022-12-20T20:29:04.331Z,4.79
2022-12-20T20:31:34.995Z,4.74
2022-12-20T20:34:05.747Z,4.66
2022-12-20T20:36:35.858Z,4.53
2022-12-20T20:39:06.692Z,4.65
2022-12-20T20:41:39.261Z,4.74
2022-12-20T20:44:09.715Z,4.72
2022-12-20T20:46:39.963Z,4.62
2022-12-20T20:49:10.047Z,4.75
2022-12-20T20:51:40.074Z,4.79
2022-12-20T20:54:10.552Z,4.82
2022-12-20T20:56:43.348Z,4.85
2022-12-20T20:59:17.850Z,4.82
2022-12-20T21:01:48.481Z,4.77
2022-12-20T21:04:18.776Z,4.71
2022-12-20T21:06:48.838Z,4.58
2022-12-20T21:09:18.962Z,4.37
2022-12-20T21:11:51.641Z,4.35
2022-12-20T21:14:43.303Z,4.45
2022-12-20T21:17:12.099Z,4.54
2022-12-20T21:19:42.083Z,4.61
2022-12-20T21:22:12.064Z,4.65
2022-12-20T21:24:42.161Z,4.65
2022-12-20T21:27:15.492Z,4.66
2022-12-20T21:29:45.575Z,4.52
2022-12-20T21:32:15.583Z,4.43
2022-12-20T21:34:45.595Z,4.45
2022-12-20T21:37:15.761Z,4.48
2022-12-20T21:39:45.744Z,4.47
2022-12-20T21:42:18.445Z,4.47
2022-12-20T21:44:48.510Z,4.41
2022-12-20T21:47:18.505Z,4.34
2022-12-20T21:49:48.769Z,4.22
2022-12-20T21:52:19.038Z,4.31
2022-12-20T21:54:49.205Z,4.37
2022-12-20T21:57:21.786Z,4.38
2022-12-20T21:59:51.820Z,4.33
2022-12-20T22:02:21.903Z,4.31
2022-12-20T22:04:52.114Z,4.34
2022-12-20T22:07:22.089Z,4.42
2022-12-20T22:09:52.076Z,4.44
2022-12-20T22:12:24.639Z,4.46
2022-12-20T22:14:54.677Z,4.23
2022-12-20T22:17:24.679Z,4.34
2022-12-20T22:19:54.670Z,4.43
2022-12-20T22:22:24.657Z,4.50
2022-12-20T22:24:54.828Z,4.55
2022-12-20T22:27:27.551Z,4.59
2022-12-20T22:29:57.529Z,4.67
2022-12-20T22:32:27.663Z,4.67
2022-12-20T22:34:57.724Z,4.71
2022-12-20T22:37:28.041Z,4.67
2022-12-20T22:39:58.118Z,4.60
2022-12-20T22:42:30.974Z,4.61
2022-12-20T22:45:00.979Z,4.60
2022-12-20T22:47:31.021Z,4.62
2022-12-20T22:50:00.995Z,4.67
2022-12-20T22:52:31.038Z,4.69
2022-12-20T22:55:01.006Z,4.77
2022-12-20T22:57:34.070Z,4.79
2022-12-20T23:00:04.720Z,4.74
2022-12-20T23:02:35.028Z,4.63
2022-12-20T23:05:05.223Z,4.52
2022-12-20T23:07:35.384Z,4.41
2022-12-20T23:10:25.710Z,4.22
2022-12-20T23:13:10.847Z,4.37
2022-12-20T23:15:43.721Z,4.43
2022-12-20T23:18:13.714Z,4.41
2022-12-20T23:20:56.194Z,4.40
2022-12-20T23:23:26.282Z,4.48
2022-12-20T23:25:56.252Z,4.37
2022-12-20T23:28:29.083Z,4.23
2022-12-20T23:30:59.086Z,4.28
2022-12-20T23:33:29.177Z,4.38
2022-12-20T23:36:00.264Z,4.53
2022-12-20T23:38:30.548Z,4.58
2022-12-20T23:41:00.608Z,4.66
2022-12-20T23:43:35.130Z,4.68
2022-12-20T23:46:07.739Z,4.70
2022-12-20T23:48:37.827Z,4.73
2022-12-20T23:51:08.518Z,4.80
2022-12-20T23:53:39.346Z,4.82
2022-12-20T23:56:14.993Z,4.82
2022-12-20T23:58:48.755Z,4.88
